sensor_id;sensor_type;location;lat;lon;timestamp;P1;durP1;ratioP1;P2;durP2;ratioP2
74945;SDS011;63509;45.250;38.102;2024-03-23T00:54:03;10.05;;;4.57;;
74945;SDS011;63509;45.250;38.102;2024-03-23T00:56:29;13.25;;;6.10;;
74945;SDS011;63509;45.250;38.102;2024-03-23T00:58:57;9.80;;;4.40;;
74945;SDS011;63509;45.250;38.102;2024-03-23T01:01:23;12.73;;;5.07;;
74945;SDS011;63509;45.250;38.102;2024-03-23T01:03:49;12.70;;;5.03;;
74945;SDS011;63509;45.250;38.102;2024-03-23T01:06:15;10.75;;;4.57;;
74945;SDS011;63509;45.250;38.102;2024-03-23T01:08:41;12.48;;;4.93;;
74945;SDS011;63509;45.250;38.102;2024-03-23T01:11:07;9.63;;;4.78;;
74945;SDS011;63509;45.250;38.102;2024-03-23T01:13:33;17.70;;;6.18;;
74945;SDS011;63509;45.250;38.102;2024-03-23T01:15:59;14.02;;;4.65;;
74945;SDS011;63509;45.250;38.102;2024-03-23T01:18:25;13.15;;;5.13;;
74945;SDS011;63509;45.250;38.102;2024-03-23T01:20:51;13.25;;;5.50;;
74945;SDS011;63509;45.250;38.102;2024-03-23T01:23:18;11.35;;;4.50;;
74945;SDS011;63509;45.250;38.102;2024-03-23T01:25:43;12.10;;;4.65;;
74945;SDS011;63509;45.250;38.102;2024-03-23T01:28:17;11.88;;;4.30;;
74945;SDS011;63509;45.250;38.102;2024-03-23T01:30:43;15.45;;;5.30;;
74945;SDS011;63509;45.250;38.102;2024-03-23T01:33:10;13.13;;;4.65;;
74945;SDS011;63509;45.250;38.102;2024-03-23T01:35:36;11.07;;;5.63;;
74945;SDS011;63509;45.250;38.102;2024-03-23T01:38:02;12.07;;;5.22;;
74945;SDS011;63509;45.250;38.102;2024-03-23T01:40:28;12.80;;;5.50;;
74945;SDS011;63509;45.250;38.102;2024-03-23T01:45:23;14.88;;;5.18;;
74945;SDS011;63509;45.250;38.102;2024-03-23T01:47:50;10.57;;;5.32;;
74945;SDS011;63509;45.250;38.102;2024-03-23T01:50:18;18.17;;;5.32;;
74945;SDS011;63509;45.250;38.102;2024-03-23T01:52:49;14.73;;;5.80;;
74945;SDS011;63509;45.250;38.102;2024-03-23T01:55:15;9.93;;;4.70;;
74945;SDS011;63509;45.250;38.102;2024-03-23T01:57:41;15.20;;;6.18;;
74945;SDS011;63509;45.250;38.102;2024-03-23T02:00:08;14.23;;;7.13;;
74945;SDS011;63509;45.250;38.102;2024-03-23T02:02:46;16.70;;;5.57;;
74945;SDS011;63509;45.250;38.102;2024-03-23T02:05:12;19.65;;;6.18;;
74945;SDS011;63509;45.250;38.102;2024-03-23T02:07:39;18.02;;;6.45;;
74945;SDS011;63509;45.250;38.102;2024-03-23T02:10:06;14.20;;;6.68;;
74945;SDS011;63509;45.250;38.102;2024-03-23T02:12:33;15.48;;;7.03;;
74945;SDS011;63509;45.250;38.102;2024-03-23T02:15:00;12.73;;;5.95;;
74945;SDS011;63509;45.250;38.102;2024-03-23T02:17:27;15.15;;;6.95;;
74945;SDS011;63509;45.250;38.102;2024-03-23T02:19:55;13.57;;;6.13;;
74945;SDS011;63509;45.250;38.102;2024-03-23T02:22:21;16.80;;;6.60;;
74945;SDS011;63509;45.250;38.102;2024-03-23T02:24:47;15.00;;;6.20;;
74945;SDS011;63509;45.250;38.102;2024-03-23T02:27:13;18.77;;;7.63;;
74945;SDS011;63509;45.250;38.102;2024-03-23T02:29:39;18.20;;;7.88;;
74945;SDS011;63509;45.250;38.102;2024-03-23T02:32:06;16.52;;;6.75;;
74945;SDS011;63509;45.250;38.102;2024-03-23T02:34:34;23.67;;;7.35;;
74945;SDS011;63509;45.250;38.102;2024-03-23T02:37:00;17.20;;;6.38;;
74945;SDS011;63509;45.250;38.102;2024-03-23T02:39:27;22.63;;;7.75;;
74945;SDS011;63509;45.250;38.102;2024-03-23T02:41:53;14.88;;;8.13;;
74945;SDS011;63509;45.250;38.102;2024-03-23T02:44:19;18.05;;;7.15;;
74945;SDS011;63509;45.250;38.102;2024-03-23T02:46:45;18.17;;;6.53;;
74945;SDS011;63509;45.250;38.102;2024-03-23T02:49:11;17.58;;;7.15;;
74945;SDS011;63509;45.250;38.102;2024-03-23T02:51:37;19.58;;;8.02;;
74945;SDS011;63509;45.250;38.102;2024-03-23T02:54:03;26.17;;;6.85;;
74945;SDS011;63509;45.250;38.102;2024-03-23T02:56:31;13.40;;;6.47;;
74945;SDS011;63509;45.250;38.102;2024-03-23T02:58:58;16.65;;;6.63;;
74945;SDS011;63509;45.250;38.102;2024-03-23T03:01:24;13.15;;;6.72;;
74945;SDS011;63509;45.250;38.102;2024-03-23T03:03:51;21.33;;;7.78;;
74945;SDS011;63509;45.250;38.102;2024-03-23T03:06:24;17.58;;;7.25;;
74945;SDS011;63509;45.250;38.102;2024-03-23T03:08:50;16.63;;;7.78;;
74945;SDS011;63509;45.250;38.102;2024-03-23T03:11:16;15.65;;;6.68;;
74945;SDS011;63509;45.250;38.102;2024-03-23T03:13:42;17.40;;;7.40;;
74945;SDS011;63509;45.250;38.102;2024-03-23T03:16:09;18.77;;;8.57;;
74945;SDS011;63509;45.250;38.102;2024-03-23T03:18:36;19.40;;;7.72;;
74945;SDS011;63509;45.250;38.102;2024-03-23T03:21:02;21.15;;;7.68;;
74945;SDS011;63509;45.250;38.102;2024-03-23T03:23:30;22.48;;;8.23;;
74945;SDS011;63509;45.250;38.102;2024-03-23T03:25:56;18.90;;;6.50;;
74945;SDS011;63509;45.250;38.102;2024-03-23T03:28:23;15.38;;;6.95;;
74945;SDS011;63509;45.250;38.102;2024-03-23T03:30:51;19.20;;;8.57;;
74945;SDS011;63509;45.250;38.102;2024-03-23T03:33:17;19.33;;;8.18;;
74945;SDS011;63509;45.250;38.102;2024-03-23T03:35:43;13.85;;;6.20;;
74945;SDS011;63509;45.250;38.102;2024-03-23T03:38:10;17.33;;;7.32;;
74945;SDS011;63509;45.250;38.102;2024-03-23T03:40:36;20.90;;;8.30;;
74945;SDS011;63509;45.250;38.102;2024-03-23T03:43:02;17.48;;;6.30;;
74945;SDS011;63509;45.250;38.102;2024-03-23T03:45:29;21.40;;;8.45;;
74945;SDS011;63509;45.250;38.102;2024-03-23T03:47:55;17.33;;;6.43;;
74945;SDS011;63509;45.250;38.102;2024-03-23T03:50:21;17.20;;;7.22;;
74945;SDS011;63509;45.250;38.102;2024-03-23T03:52:47;17.95;;;6.95;;
74945;SDS011;63509;45.250;38.102;2024-03-23T03:55:14;15.10;;;6.30;;
74945;SDS011;63509;45.250;38.102;2024-03-23T03:57:40;16.63;;;7.35;;
74945;SDS011;63509;45.250;38.102;2024-03-23T04:00:06;19.45;;;7.65;;
74945;SDS011;63509;45.250;38.102;2024-03-23T04:02:39;16.42;;;6.85;;
74945;SDS011;63509;45.250;38.102;2024-03-23T04:05:06;15.63;;;7.03;;
74945;SDS011;63509;45.250;38.102;2024-03-23T04:07:33;17.77;;;7.38;;
74945;SDS011;63509;45.250;38.102;2024-03-23T04:09:59;17.45;;;7.38;;
74945;SDS011;63509;45.250;38.102;2024-03-23T04:12:26;17.77;;;7.85;;
74945;SDS011;63509;45.250;38.102;2024-03-23T04:14:52;15.55;;;7.03;;
74945;SDS011;63509;45.250;38.102;2024-03-23T04:17:19;19.63;;;7.28;;
74945;SDS011;63509;45.250;38.102;2024-03-23T04:19:45;15.93;;;7.07;;
74945;SDS011;63509;45.250;38.102;2024-03-23T04:22:11;16.42;;;5.95;;
74945;SDS011;63509;45.250;38.102;2024-03-23T04:24:37;15.27;;;7.65;;
74945;SDS011;63509;45.250;38.102;2024-03-23T04:27:03;16.23;;;6.85;;
74945;SDS011;63509;45.250;38.102;2024-03-23T04:29:29;12.85;;;5.72;;
74945;SDS011;63509;45.250;38.102;2024-03-23T04:31:55;17.45;;;6.85;;
74945;SDS011;63509;45.250;38.102;2024-03-23T04:34:21;21.25;;;7.63;;
74945;SDS011;63509;45.250;38.102;2024-03-23T04:36:48;14.38;;;6.85;;
74945;SDS011;63509;45.250;38.102;2024-03-23T04:39:14;16.10;;;6.75;;
74945;SDS011;63509;45.250;38.102;2024-03-23T04:41:41;18.90;;;7.10;;
74945;SDS011;63509;45.250;38.102;2024-03-23T04:44:07;17.73;;;7.32;;
74945;SDS011;63509;45.250;38.102;2024-03-23T04:46:33;14.40;;;7.65;;
74945;SDS011;63509;45.250;38.102;2024-03-23T04:48:59;27.65;;;7.35;;
74945;SDS011;63509;45.250;38.102;2024-03-23T04:51:25;20.98;;;7.65;;
74945;SDS011;63509;45.250;38.102;2024-03-23T04:53:52;15.07;;;6.60;;
74945;SDS011;63509;45.250;38.102;2024-03-23T04:56:18;14.40;;;6.55;;
74945;SDS011;63509;45.250;38.102;2024-03-23T04:58:44;13.10;;;6.40;;
74945;SDS011;63509;45.250;38.102;2024-03-23T05:01:11;23.38;;;7.90;;
74945;SDS011;63509;45.250;38.102;2024-03-23T05:03:37;19.23;;;6.57;;
74945;SDS011;63509;45.250;38.102;2024-03-23T05:06:03;17.10;;;7.70;;
74945;SDS011;63509;45.250;38.102;2024-03-23T05:08:30;14.45;;;6.82;;
74945;SDS011;63509;45.250;38.102;2024-03-23T05:10:57;20.73;;;8.57;;
74945;SDS011;63509;45.250;38.102;2024-03-23T05:13:23;15.45;;;7.18;;
74945;SDS011;63509;45.250;38.102;2024-03-23T05:15:53;17.40;;;7.22;;
74945;SDS011;63509;45.250;38.102;2024-03-23T05:18:19;14.32;;;7.43;;
74945;SDS011;63509;45.250;38.102;2024-03-23T05:20:46;17.63;;;6.75;;
74945;SDS011;63509;45.250;38.102;2024-03-23T05:23:12;20.80;;;7.03;;
74945;SDS011;63509;45.250;38.102;2024-03-23T05:25:38;15.25;;;7.18;;
74945;SDS011;63509;45.250;38.102;2024-03-23T05:28:04;21.52;;;7.47;;
74945;SDS011;63509;45.250;38.102;2024-03-23T05:30:30;15.15;;;7.20;;
74945;SDS011;63509;45.250;38.102;2024-03-23T05:32:56;14.93;;;6.15;;
74945;SDS011;63509;45.250;38.102;2024-03-23T05:35:23;16.80;;;7.30;;
74945;SDS011;63509;45.250;38.102;2024-03-23T05:37:49;15.98;;;8.50;;
74945;SDS011;63509;45.250;38.102;2024-03-23T05:40:15;17.75;;;7.03;;
74945;SDS011;63509;45.250;38.102;2024-03-23T05:42:41;17.50;;;7.43;;
74945;SDS011;63509;45.250;38.102;2024-03-23T05:45:08;19.75;;;7.45;;
74945;SDS011;63509;45.250;38.102;2024-03-23T05:47:34;22.73;;;6.78;;
74945;SDS011;63509;45.250;38.102;2024-03-23T05:50:00;19.35;;;7.43;;
74945;SDS011;63509;45.250;38.102;2024-03-23T05:52:27;20.25;;;7.93;;
74945;SDS011;63509;45.250;38.102;2024-03-23T05:54:53;16.73;;;7.60;;
74945;SDS011;63509;45.250;38.102;2024-03-23T05:57:19;15.32;;;6.93;;
74945;SDS011;63509;45.250;38.102;2024-03-23T05:59:45;12.98;;;6.38;;
74945;SDS011;63509;45.250;38.102;2024-03-23T06:02:12;16.02;;;6.85;;
74945;SDS011;63509;45.250;38.102;2024-03-23T06:04:38;14.07;;;6.07;;
74945;SDS011;63509;45.250;38.102;2024-03-23T06:07:04;16.55;;;7.13;;
74945;SDS011;63509;45.250;38.102;2024-03-23T06:09:39;15.20;;;6.95;;
74945;SDS011;63509;45.250;38.102;2024-03-23T06:12:06;13.85;;;6.18;;
74945;SDS011;63509;45.250;38.102;2024-03-23T06:14:32;16.60;;;6.00;;
74945;SDS011;63509;45.250;38.102;2024-03-23T06:16:59;17.45;;;7.13;;
74945;SDS011;63509;45.250;38.102;2024-03-23T06:19:26;15.45;;;7.50;;
74945;SDS011;63509;45.250;38.102;2024-03-23T06:21:53;14.48;;;6.55;;
74945;SDS011;63509;45.250;38.102;2024-03-23T06:24:22;15.40;;;6.03;;
74945;SDS011;63509;45.250;38.102;2024-03-23T06:26:49;18.45;;;6.40;;
74945;SDS011;63509;45.250;38.102;2024-03-23T06:29:16;14.38;;;5.95;;
74945;SDS011;63509;45.250;38.102;2024-03-23T06:31:42;16.17;;;6.75;;
74945;SDS011;63509;45.250;38.102;2024-03-23T06:34:08;17.13;;;7.35;;
74945;SDS011;63509;45.250;38.102;2024-03-23T06:36:34;14.82;;;6.70;;
74945;SDS011;63509;45.250;38.102;2024-03-23T06:39:01;13.85;;;6.60;;
74945;SDS011;63509;45.250;38.102;2024-03-23T06:41:28;16.50;;;6.68;;
74945;SDS011;63509;45.250;38.102;2024-03-23T06:43:54;16.10;;;7.05;;
74945;SDS011;63509;45.250;38.102;2024-03-23T06:46:20;20.58;;;6.50;;
74945;SDS011;63509;45.250;38.102;2024-03-23T06:48:46;16.10;;;7.05;;
74945;SDS011;63509;45.250;38.102;2024-03-23T06:51:12;16.10;;;6.43;;
74945;SDS011;63509;45.250;38.102;2024-03-23T06:53:38;15.50;;;6.63;;
74945;SDS011;63509;45.250;38.102;2024-03-23T06:56:04;14.55;;;6.10;;
74945;SDS011;63509;45.250;38.102;2024-03-23T06:58:31;17.10;;;7.15;;
74945;SDS011;63509;45.250;38.102;2024-03-23T07:00:58;18.75;;;7.13;;
74945;SDS011;63509;45.250;38.102;2024-03-23T07:03:24;14.95;;;5.65;;
74945;SDS011;63509;45.250;38.102;2024-03-23T07:05:51;16.23;;;6.97;;
74945;SDS011;63509;45.250;38.102;2024-03-23T07:08:17;14.70;;;5.57;;
74945;SDS011;63509;45.250;38.102;2024-03-23T07:10:47;18.02;;;6.80;;
74945;SDS011;63509;45.250;38.102;2024-03-23T07:13:13;14.10;;;5.60;;
74945;SDS011;63509;45.250;38.102;2024-03-23T07:15:39;15.27;;;6.13;;
74945;SDS011;63509;45.250;38.102;2024-03-23T07:18:05;16.58;;;7.35;;
74945;SDS011;63509;45.250;38.102;2024-03-23T07:20:31;14.13;;;5.65;;
74945;SDS011;63509;45.250;38.102;2024-03-23T07:22:57;14.30;;;6.25;;
74945;SDS011;63509;45.250;38.102;2024-03-23T07:25:24;14.10;;;6.22;;
74945;SDS011;63509;45.250;38.102;2024-03-23T07:27:55;21.80;;;7.00;;
74945;SDS011;63509;45.250;38.102;2024-03-23T07:30:21;12.55;;;6.00;;
74945;SDS011;63509;45.250;38.102;2024-03-23T07:32:47;12.50;;;5.50;;
74945;SDS011;63509;45.250;38.102;2024-03-23T07:35:13;13.93;;;5.47;;
74945;SDS011;63509;45.250;38.102;2024-03-23T07:37:40;15.93;;;5.82;;
74945;SDS011;63509;45.250;38.102;2024-03-23T07:40:07;19.52;;;7.38;;
74945;SDS011;63509;45.250;38.102;2024-03-23T07:42:34;15.18;;;5.55;;
74945;SDS011;63509;45.250;38.102;2024-03-23T07:45:00;15.85;;;6.22;;
74945;SDS011;63509;45.250;38.102;2024-03-23T07:47:26;15.95;;;6.25;;
74945;SDS011;63509;45.250;38.102;2024-03-23T07:49:52;13.15;;;4.80;;
74945;SDS011;63509;45.250;38.102;2024-03-23T07:52:18;15.52;;;5.30;;
74945;SDS011;63509;45.250;38.102;2024-03-23T07:54:44;23.10;;;5.13;;
74945;SDS011;63509;45.250;38.102;2024-03-23T07:57:10;20.52;;;5.93;;
74945;SDS011;63509;45.250;38.102;2024-03-23T07:59:37;24.38;;;6.18;;
74945;SDS011;63509;45.250;38.102;2024-03-23T08:02:02;13.93;;;5.28;;
74945;SDS011;63509;45.250;38.102;2024-03-23T08:04:29;16.83;;;4.47;;
74945;SDS011;63509;45.250;38.102;2024-03-23T08:06:55;18.65;;;5.50;;
74945;SDS011;63509;45.250;38.102;2024-03-23T08:09:22;14.85;;;4.25;;
74945;SDS011;63509;45.250;38.102;2024-03-23T08:11:48;14.93;;;5.00;;
74945;SDS011;63509;45.250;38.102;2024-03-23T08:14:14;21.67;;;5.57;;
74945;SDS011;63509;45.250;38.102;2024-03-23T08:16:40;11.35;;;4.38;;
74945;SDS011;63509;45.250;38.102;2024-03-23T08:19:06;20.50;;;5.00;;
74945;SDS011;63509;45.250;38.102;2024-03-23T08:21:34;11.75;;;4.50;;
74945;SDS011;63509;45.250;38.102;2024-03-23T08:24:00;42.10;;;6.35;;
74945;SDS011;63509;45.250;38.102;2024-03-23T08:26:26;44.08;;;7.53;;
74945;SDS011;63509;45.250;38.102;2024-03-23T08:28:52;19.40;;;5.82;;
74945;SDS011;63509;45.250;38.102;2024-03-23T08:31:18;13.32;;;4.93;;
74945;SDS011;63509;45.250;38.102;2024-03-23T08:33:44;21.52;;;4.82;;
74945;SDS011;63509;45.250;38.102;2024-03-23T08:36:10;13.18;;;4.88;;
74945;SDS011;63509;45.250;38.102;2024-03-23T08:38:42;27.00;;;5.57;;
74945;SDS011;63509;45.250;38.102;2024-03-23T08:41:09;22.83;;;4.75;;
74945;SDS011;63509;45.250;38.102;2024-03-23T08:43:36;28.05;;;5.47;;
74945;SDS011;63509;45.250;38.102;2024-03-23T08:46:10;18.50;;;5.97;;
74945;SDS011;63509;45.250;38.102;2024-03-23T08:48:55;19.88;;;5.80;;
74945;SDS011;63509;45.250;38.102;2024-03-23T08:51:21;16.15;;;5.28;;
74945;SDS011;63509;45.250;38.102;2024-03-23T08:53:47;24.02;;;5.65;;
74945;SDS011;63509;45.250;38.102;2024-03-23T08:56:13;13.98;;;5.97;;
74945;SDS011;63509;45.250;38.102;2024-03-23T08:58:39;34.67;;;7.78;;
74945;SDS011;63509;45.250;38.102;2024-03-23T09:01:12;17.95;;;5.53;;
74945;SDS011;63509;45.250;38.102;2024-03-23T09:03:39;21.42;;;5.22;;
74945;SDS011;63509;45.250;38.102;2024-03-23T09:06:12;33.58;;;5.75;;
74945;SDS011;63509;45.250;38.102;2024-03-23T09:08:40;13.27;;;5.05;;
74945;SDS011;63509;45.250;38.102;2024-03-23T09:11:07;9.27;;;4.55;;
74945;SDS011;63509;45.250;38.102;2024-03-23T09:13:35;15.55;;;5.82;;
74945;SDS011;63509;45.250;38.102;2024-03-23T09:16:03;24.13;;;6.95;;
74945;SDS011;63509;45.250;38.102;2024-03-23T09:18:33;17.02;;;5.93;;
74945;SDS011;63509;45.250;38.102;2024-03-23T09:21:01;9.18;;;5.03;;
74945;SDS011;63509;45.250;38.102;2024-03-23T09:23:28;19.10;;;5.10;;
74945;SDS011;63509;45.250;38.102;2024-03-23T09:25:54;21.90;;;6.72;;
74945;SDS011;63509;45.250;38.102;2024-03-23T09:28:20;16.67;;;5.78;;
74945;SDS011;63509;45.250;38.102;2024-03-23T09:30:46;15.18;;;4.78;;
74945;SDS011;63509;45.250;38.102;2024-03-23T09:33:12;14.98;;;5.57;;
74945;SDS011;63509;45.250;38.102;2024-03-23T09:35:42;10.20;;;5.70;;
74945;SDS011;63509;45.250;38.102;2024-03-23T09:38:10;11.98;;;5.07;;
74945;SDS011;63509;45.250;38.102;2024-03-23T09:40:43;23.45;;;7.07;;
74945;SDS011;63509;45.250;38.102;2024-03-23T09:43:09;15.10;;;5.82;;
74945;SDS011;63509;45.250;38.102;2024-03-23T09:45:36;17.10;;;5.25;;
74945;SDS011;63509;45.250;38.102;2024-03-23T09:48:05;21.38;;;5.95;;
74945;SDS011;63509;45.250;38.102;2024-03-23T09:52:59;12.95;;;5.07;;
74945;SDS011;63509;45.250;38.102;2024-03-23T09:55:26;15.20;;;6.07;;
74945;SDS011;63509;45.250;38.102;2024-03-23T09:57:52;14.15;;;4.50;;
74945;SDS011;63509;45.250;38.102;2024-03-23T10:00:18;11.35;;;3.97;;
74945;SDS011;63509;45.250;38.102;2024-03-23T10:02:45;19.33;;;6.07;;
74945;SDS011;63509;45.250;38.102;2024-03-23T10:05:21;16.75;;;4.90;;
74945;SDS011;63509;45.250;38.102;2024-03-23T10:07:51;20.65;;;4.63;;
74945;SDS011;63509;45.250;38.102;2024-03-23T10:10:17;19.42;;;6.20;;
74945;SDS011;63509;45.250;38.102;2024-03-23T10:12:44;22.45;;;6.65;;
74945;SDS011;63509;45.250;38.102;2024-03-23T10:15:23;14.80;;;5.32;;
74945;SDS011;63509;45.250;38.102;2024-03-23T10:17:50;22.92;;;6.50;;
74945;SDS011;63509;45.250;38.102;2024-03-23T10:20:23;14.70;;;6.15;;
74945;SDS011;63509;45.250;38.102;2024-03-23T10:22:50;12.57;;;5.63;;
74945;SDS011;63509;45.250;38.102;2024-03-23T10:25:22;15.68;;;4.95;;
74945;SDS011;63509;45.250;38.102;2024-03-23T10:27:58;26.40;;;6.65;;
74945;SDS011;63509;45.250;38.102;2024-03-23T10:30:26;17.20;;;7.15;;
74945;SDS011;63509;45.250;38.102;2024-03-23T10:35:36;12.38;;;5.30;;
74945;SDS011;63509;45.250;38.102;2024-03-23T10:38:06;21.00;;;6.10;;
74945;SDS011;63509;45.250;38.102;2024-03-23T10:40:34;11.38;;;5.30;;
74945;SDS011;63509;45.250;38.102;2024-03-23T10:43:00;12.90;;;5.38;;
74945;SDS011;63509;45.250;38.102;2024-03-23T10:45:29;17.23;;;6.22;;
74945;SDS011;63509;45.250;38.102;2024-03-23T10:47:58;27.08;;;5.72;;
74945;SDS011;63509;45.250;38.102;2024-03-23T10:50:28;15.27;;;4.70;;
74945;SDS011;63509;45.250;38.102;2024-03-23T10:52:54;12.00;;;4.35;;
74945;SDS011;63509;45.250;38.102;2024-03-23T10:55:25;21.90;;;5.72;;
74945;SDS011;63509;45.250;38.102;2024-03-23T10:57:53;8.75;;;4.70;;
74945;SDS011;63509;45.250;38.102;2024-03-23T11:00:21;14.43;;;5.78;;
74945;SDS011;63509;45.250;38.102;2024-03-23T11:02:48;14.55;;;4.68;;
74945;SDS011;63509;45.250;38.102;2024-03-23T11:07:50;10.43;;;5.00;;
74945;SDS011;63509;45.250;38.102;2024-03-23T11:10:27;25.23;;;6.88;;
74945;SDS011;63509;45.250;38.102;2024-03-23T11:12:58;12.27;;;5.55;;
74945;SDS011;63509;45.250;38.102;2024-03-23T11:15:44;13.93;;;5.88;;
74945;SDS011;63509;45.250;38.102;2024-03-23T11:18:10;13.73;;;5.95;;
74945;SDS011;63509;45.250;38.102;2024-03-23T11:20:37;13.13;;;6.38;;
74945;SDS011;63509;45.250;38.102;2024-03-23T11:23:04;26.15;;;5.35;;
74945;SDS011;63509;45.250;38.102;2024-03-23T11:25:30;16.25;;;5.43;;
74945;SDS011;63509;45.250;38.102;2024-03-23T11:27:57;17.17;;;6.07;;
74945;SDS011;63509;45.250;38.102;2024-03-23T11:30:34;19.48;;;6.07;;
74945;SDS011;63509;45.250;38.102;2024-03-23T11:33:03;10.25;;;4.75;;
74945;SDS011;63509;45.250;38.102;2024-03-23T11:35:31;12.43;;;5.10;;
74945;SDS011;63509;45.250;38.102;2024-03-23T11:38:02;17.15;;;5.38;;
74945;SDS011;63509;45.250;38.102;2024-03-23T11:40:44;21.17;;;5.68;;
74945;SDS011;63509;45.250;38.102;2024-03-23T11:45:48;28.38;;;6.72;;
74945;SDS011;63509;45.250;38.102;2024-03-23T11:48:20;24.77;;;6.88;;
74945;SDS011;63509;45.250;38.102;2024-03-23T11:50:48;35.65;;;8.02;;
74945;SDS011;63509;45.250;38.102;2024-03-23T11:53:16;19.08;;;6.35;;
74945;SDS011;63509;45.250;38.102;2024-03-23T11:58:20;18.23;;;6.40;;
74945;SDS011;63509;45.250;38.102;2024-03-23T12:00:58;28.75;;;5.63;;
74945;SDS011;63509;45.250;38.102;2024-03-23T12:03:27;29.98;;;6.20;;
74945;SDS011;63509;45.250;38.102;2024-03-23T12:05:54;13.48;;;4.38;;
74945;SDS011;63509;45.250;38.102;2024-03-23T12:11:04;10.18;;;4.65;;
74945;SDS011;63509;45.250;38.102;2024-03-23T12:13:34;11.15;;;5.22;;
74945;SDS011;63509;45.250;38.102;2024-03-23T12:16:13;11.85;;;4.20;;
74945;SDS011;63509;45.250;38.102;2024-03-23T12:18:45;10.85;;;4.93;;
74945;SDS011;63509;45.250;38.102;2024-03-23T12:21:13;24.60;;;5.60;;
74945;SDS011;63509;45.250;38.102;2024-03-23T12:23:40;12.73;;;5.03;;
74945;SDS011;63509;45.250;38.102;2024-03-23T12:26:08;17.23;;;4.90;;
74945;SDS011;63509;45.250;38.102;2024-03-23T12:28:35;12.35;;;5.85;;
74945;SDS011;63509;45.250;38.102;2024-03-23T12:31:07;15.63;;;4.72;;
74945;SDS011;63509;45.250;38.102;2024-03-23T12:33:33;26.13;;;5.75;;
74945;SDS011;63509;45.250;38.102;2024-03-23T12:35:59;15.68;;;5.80;;
74945;SDS011;63509;45.250;38.102;2024-03-23T12:38:25;27.42;;;6.15;;
74945;SDS011;63509;45.250;38.102;2024-03-23T12:40:52;10.90;;;4.57;;
74945;SDS011;63509;45.250;38.102;2024-03-23T12:43:18;13.20;;;5.05;;
74945;SDS011;63509;45.250;38.102;2024-03-23T12:45:47;30.65;;;7.82;;
74945;SDS011;63509;45.250;38.102;2024-03-23T12:48:14;12.18;;;4.85;;
74945;SDS011;63509;45.250;38.102;2024-03-23T12:50:41;11.77;;;4.72;;
74945;SDS011;63509;45.250;38.102;2024-03-23T12:53:07;17.67;;;5.93;;
74945;SDS011;63509;45.250;38.102;2024-03-23T12:55:36;12.02;;;4.75;;
74945;SDS011;63509;45.250;38.102;2024-03-23T12:58:03;11.75;;;4.95;;
74945;SDS011;63509;45.250;38.102;2024-03-23T13:00:30;12.63;;;6.00;;
74945;SDS011;63509;45.250;38.102;2024-03-23T13:02:56;9.52;;;4.25;;
74945;SDS011;63509;45.250;38.102;2024-03-23T13:05:23;9.93;;;5.00;;
74945;SDS011;63509;45.250;38.102;2024-03-23T13:07:49;18.67;;;5.38;;
74945;SDS011;63509;45.250;38.102;2024-03-23T13:10:15;10.35;;;5.10;;
74945;SDS011;63509;45.250;38.102;2024-03-23T13:12:42;9.65;;;4.35;;
74945;SDS011;63509;45.250;38.102;2024-03-23T13:15:08;17.13;;;4.55;;
74945;SDS011;63509;45.250;38.102;2024-03-23T13:17:35;8.85;;;4.07;;
74945;SDS011;63509;45.250;38.102;2024-03-23T13:20:01;11.55;;;4.88;;
74945;SDS011;63509;45.250;38.102;2024-03-23T13:22:29;6.40;;;3.35;;
74945;SDS011;63509;45.250;38.102;2024-03-23T13:24:55;9.20;;;4.15;;
74945;SDS011;63509;45.250;38.102;2024-03-23T13:27:22;10.77;;;4.63;;
74945;SDS011;63509;45.250;38.102;2024-03-23T13:29:48;16.02;;;5.13;;
74945;SDS011;63509;45.250;38.102;2024-03-23T13:34:57;17.58;;;4.53;;
74945;SDS011;63509;45.250;38.102;2024-03-23T13:37:23;15.30;;;4.38;;
74945;SDS011;63509;45.250;38.102;2024-03-23T13:39:49;13.00;;;5.15;;
74945;SDS011;63509;45.250;38.102;2024-03-23T13:42:15;15.52;;;5.25;;
74945;SDS011;63509;45.250;38.102;2024-03-23T13:44:42;20.48;;;5.43;;
74945;SDS011;63509;45.250;38.102;2024-03-23T13:47:08;12.23;;;4.80;;
74945;SDS011;63509;45.250;38.102;2024-03-23T13:49:34;9.82;;;4.82;;
74945;SDS011;63509;45.250;38.102;2024-03-23T13:52:01;12.20;;;4.63;;
74945;SDS011;63509;45.250;38.102;2024-03-23T13:54:27;17.67;;;4.68;;
74945;SDS011;63509;45.250;38.102;2024-03-23T13:56:54;12.15;;;5.15;;
74945;SDS011;63509;45.250;38.102;2024-03-23T13:59:21;24.48;;;5.53;;
74945;SDS011;63509;45.250;38.102;2024-03-23T14:01:51;18.88;;;4.40;;
74945;SDS011;63509;45.250;38.102;2024-03-23T14:04:17;13.98;;;4.07;;
74945;SDS011;63509;45.250;38.102;2024-03-23T14:06:48;17.17;;;5.78;;
74945;SDS011;63509;45.250;38.102;2024-03-23T14:09:14;15.88;;;4.22;;
74945;SDS011;63509;45.250;38.102;2024-03-23T14:11:46;16.10;;;5.32;;
74945;SDS011;63509;45.250;38.102;2024-03-23T14:14:12;17.10;;;4.90;;
74945;SDS011;63509;45.250;38.102;2024-03-23T14:16:40;20.45;;;5.45;;
74945;SDS011;63509;45.250;38.102;2024-03-23T14:19:07;19.02;;;5.00;;
74945;SDS011;63509;45.250;38.102;2024-03-23T14:21:33;20.80;;;5.30;;
74945;SDS011;63509;45.250;38.102;2024-03-23T14:24:01;18.92;;;4.78;;
74945;SDS011;63509;45.250;38.102;2024-03-23T14:26:28;16.00;;;4.30;;
74945;SDS011;63509;45.250;38.102;2024-03-23T14:28:54;9.68;;;3.53;;
74945;SDS011;63509;45.250;38.102;2024-03-23T14:31:20;16.30;;;4.20;;
74945;SDS011;63509;45.250;38.102;2024-03-23T14:33:47;21.55;;;5.55;;
74945;SDS011;63509;45.250;38.102;2024-03-23T14:36:13;25.90;;;5.10;;
74945;SDS011;63509;45.250;38.102;2024-03-23T14:38:40;12.32;;;4.07;;
74945;SDS011;63509;45.250;38.102;2024-03-23T14:41:06;10.73;;;4.50;;
74945;SDS011;63509;45.250;38.102;2024-03-23T14:43:32;22.83;;;4.90;;
74945;SDS011;63509;45.250;38.102;2024-03-23T14:46:08;19.98;;;4.85;;
74945;SDS011;63509;45.250;38.102;2024-03-23T14:48:42;20.55;;;3.70;;
74945;SDS011;63509;45.250;38.102;2024-03-23T14:51:10;8.93;;;3.90;;
74945;SDS011;63509;45.250;38.102;2024-03-23T14:53:40;12.10;;;4.18;;
74945;SDS011;63509;45.250;38.102;2024-03-23T14:56:10;12.93;;;4.10;;
74945;SDS011;63509;45.250;38.102;2024-03-23T14:58:38;10.68;;;3.50;;
74945;SDS011;63509;45.250;38.102;2024-03-23T15:01:05;10.45;;;3.80;;
74945;SDS011;63509;45.250;38.102;2024-03-23T15:03:35;9.68;;;3.72;;
74945;SDS011;63509;45.250;38.102;2024-03-23T15:06:04;18.30;;;4.43;;
74945;SDS011;63509;45.250;38.102;2024-03-23T15:08:30;15.45;;;4.30;;
74945;SDS011;63509;45.250;38.102;2024-03-23T15:11:00;23.98;;;3.60;;
74945;SDS011;63509;45.250;38.102;2024-03-23T15:13:34;11.80;;;4.95;;
74945;SDS011;63509;45.250;38.102;2024-03-23T15:16:04;20.95;;;4.95;;
74945;SDS011;63509;45.250;38.102;2024-03-23T15:18:34;26.58;;;5.60;;
74945;SDS011;63509;45.250;38.102;2024-03-23T15:21:02;30.27;;;4.80;;
74945;SDS011;63509;45.250;38.102;2024-03-23T15:23:31;21.50;;;5.43;;
74945;SDS011;63509;45.250;38.102;2024-03-23T15:25:58;24.80;;;5.47;;
74945;SDS011;63509;45.250;38.102;2024-03-23T15:28:26;37.25;;;5.78;;
74945;SDS011;63509;45.250;38.102;2024-03-23T15:31:06;25.67;;;5.25;;
74945;SDS011;63509;45.250;38.102;2024-03-23T15:33:35;34.58;;;5.10;;
74945;SDS011;63509;45.250;38.102;2024-03-23T15:36:02;15.70;;;4.97;;